Sunday, December 17, 2017, 2:34 PM EST
Back to Local

KJFK, Kennedy International Airport

Location: Rosedale, NY, United States Lat: 40.633
Local Time: 2:34 PM EST (19:34 GMT) Lon: -73.767
Time Zone: US/Eastern Elev: 13 ft

Show me the last for .
Show Coded

Time T Td Feel RH Dir Speed Gust Alt SLP Vis Weather Sky Remarks
2017-12-17 13:51 36 24 - 61 - Calm - 30.25 30.25 10 FEW049 FEW100 BKN230 None
2017-12-17 12:51 36 24 - 61 - Calm - 30.27 30.27 10 BKN048 BKN100 6-hr Min Temp (1pm): 32.0°F
6-hr Max Temp (1pm): 37.0°F
2017-12-17 11:51 34 23 - 63 - Calm - 30.30 30.29 10 BKN048 OVC100 None
2017-12-17 10:51 34 23 29 63 50° 6 - 30.30 30.29 10 OVC048 None
2017-12-17 09:51 33 23 30 66 80° 3 - 30.32 30.32 10 BKN044 OVC095 None
2017-12-17 08:51 33 24 29 69 110° 5 - 30.31 30.30 10 SCT050 BKN070 BKN095 None
2017-12-17 07:51 33 22 - 63 - Calm - 30.29 30.29 10 SCT047 OVC065 None
2017-12-17 06:51 32 22 29 65 20° 3 - 30.28 30.28 10 BKN047 OVC065 6-hr Min Temp (7am): 32.0°F
6-hr Max Temp (7am): 34.0°F
2017-12-17 05:51 33 22 26 63 360° 8 - 30.26 30.26 10 SCT045 OVC070 None
2017-12-17 04:51 33 22 26 63 360° 8 - 30.28 30.28 10 SCT033 OVC042 None
2017-12-17 03:51 34 22 29 60 350° 6 - 30.27 30.27 10 SCT033 OVC042 None
2017-12-17 02:51 34 22 29 60 10° 6 - 30.26 30.26 10 BKN036 OVC050 None
2017-12-17 01:51 34 21 27 58 360° 8 - 30.24 30.24 10 OVC050 None
2017-12-17 00:51 34 22 27 60 340° 8 - 30.22 30.22 10 FEW034 BKN045 OVC060 6-hr Min Temp (1am): 34.0°F
6-hr Max Temp (1am): 39.0°F
2017-12-16 23:51 34 22 25 60 350° 12 - 30.22 30.21 10 FEW037 BKN043 OVC060 24-hr Min Temp (12am): 24.1°F
24-hr Max Temp (12am): 39.0°F
2017-12-16 22:51 35 24 26 63 350° 13 - 30.20 30.20 10 FEW038 BKN048 OVC060 None
2017-12-16 21:51 36 26 28 66 340° 12 - 30.19 30.19 10 BKN048 BKN060 BKN080 None
2017-12-16 20:51 37 27 29 66 340° 13 - 30.16 30.16 10 BKN060 OVC080 None
2017-12-16 19:51 39 26 32 59 290° 10 - 30.15 30.14 10 OVC040 None
2017-12-16 18:51 39 27 31 61 260° 13 - 30.10 30.10 10 SCT049 OVC060 6-hr Min Temp (7pm): 35.1°F
6-hr Max Temp (7pm): 39.0°F
2017-12-16 17:51 38 27 30 64 260° 14 - 30.07 30.07 10 SCT047 OVC055 None
2017-12-16 16:51 38 27 29 64 260° 16 - 30.04 30.04 10 BKN047 OVC055 None
2017-12-16 15:51 38 26 29 61 260° 15 - 30.02 30.01 10 FEW035 OVC045 None
2017-12-16 14:51 37 26 28 64 260° 14 - 30.01 30.01 10 BKN042 BKN065 BKN250 None

Support USWX by starting your Amazon purchase here.